Mercini Lady — A8DL4 — position and weather

sailwx.info

Track history (hours):
 
Tides and Currents Weather Stations Pressure Air Temp Water Temp Dewpoint Dewpoint Depression Visibility Wind Speed Wind Dir Waves Ship Positions

Mercini Lady

Last reported at 2015-Jul-13 11:33 UTC. Time now 2015-Aug-01 03:25 UTC.
Position N 28°26' W 015°55'.
Warning: this ship's position is 18 days out of date.

Length 182 m; draft 12.2 m.

Type: Tanker. MMSI: 636012102.

Date/timePositionNaut miles runAvg speedWind from/ knotsBaromVisibWave heightAir tempDewpointWater temp
2015-Jul-13 11:33N 28°26' W 015°55'42110.7
2015-Jul-11 20:14N 35°08' W 013°28'  
2015-Jul-07 19:24N 49°53' W 003°26'9 9.8
2015-Jul-07 18:28N 49°56' W 003°13'1410.9
2015-Jul-07 17:09N 50°01' W 002°52'3110.1
2015-Jul-07 14:04N 50°09' W 002°06'4 7.5
2015-Jul-07 13:32N 50°11' W 001°59'83 9.2
2015-Jul-07 04:33N 50°33' E 000°06'1110.7
2015-Jul-07 03:33N 50°35' E 000°22'10 9.6
2015-Jul-07 02:33N 50°38' E 000°36'9 9.0
2015-Jul-07 01:33N 50°44' E 000°47'9 8.8
2015-Jul-07 00:33N 50°49' E 000°59'1010.0
2015-Jul-06 23:33N 50°56' E 001°11'1211.9
2015-Jul-06 22:33N 51°03' E 001°25'1312.7
2015-Jul-06 21:33N 51°11' E 001°41'1111.1
2015-Jul-06 20:33N 51°20' E 001°51'10 9.8
2015-Jul-06 19:33N 51°29' E 001°59'9 8.9
2015-Jul-06 18:33N 51°35' E 002°08'9 8.6
2015-Jul-06 17:33N 51°42' E 002°18'8 8.1
2015-Jul-06 16:33N 51°48' E 002°27'8 8.2
2015-Jul-06 15:33N 51°53' E 002°36'9 9.3
2015-Jul-06 14:33N 51°60' E 002°47'10 9.8
2015-Jul-06 13:33N 52°03' E 003°02'1010.5
2015-Jul-06 12:33N 52°03' E 003°19'1110.7
2015-Jul-06 11:32N 52°03' E 003°37'10 9.8
2015-Jul-06 10:33N 52°02' E 003°53'8 7.9
2015-Jul-06 09:33N 51°59' E 004°04'2 2.2
2015-Jul-06 08:33N 51°57' E 004°05'0 0.0
2015-Jul-06 07:33N 51°57' E 004°05'0 0.0
2015-Jul-06 06:33N 51°57' E 004°05'0 0.0
2015-Jul-06 05:33N 51°57' E 004°05'0 0.0
2015-Jul-06 04:33N 51°57' E 004°05'0 0.0
2015-Jul-05 12:13N 51°57' E 004°05'0 0.1
2015-Jul-05 11:25N 51°57' E 004°05'0 0.0
2015-Jul-05 10:32N 51°57' E 004°05'0 0.0
2015-Jul-04 17:19N 51°57' E 004°05'0 0.0
2015-Jul-04 16:31N 51°57' E 004°05'0 0.1
2015-Jul-04 15:32N 51°57' E 004°05'  
Track history (hours):
 
Tides and Currents Weather Stations Pressure Air Temp Water Temp Dewpoint Dewpoint Depression Visibility Wind Speed Wind Dir Waves Ship Positions

Mercini Lady

Last reported at 2015-Jul-13 11:33 UTC. Time now 2015-Aug-01 03:25 UTC.
Position N 28°26' W 015°55'.
Warning: this ship's position is 18 days out of date.

Length 182 m; draft 12.2 m.

Type: Tanker. MMSI: 636012102.

Date/timePositionNaut miles runAvg speedWind from/ knotsBaromVisibWave heightAir tempDewpointWater temp
2015-Jul-13 11:33N 28°26' W 015°55'42110.7
2015-Jul-11 20:14N 35°08' W 013°28'  
2015-Jul-07 19:24N 49°53' W 003°26'9 9.8
2015-Jul-07 18:28N 49°56' W 003°13'1410.9
2015-Jul-07 17:09N 50°01' W 002°52'3110.1
2015-Jul-07 14:04N 50°09' W 002°06'4 7.5
2015-Jul-07 13:32N 50°11' W 001°59'83 9.2
2015-Jul-07 04:33N 50°33' E 000°06'1110.7
2015-Jul-07 03:33N 50°35' E 000°22'10 9.6
2015-Jul-07 02:33N 50°38' E 000°36'9 9.0
2015-Jul-07 01:33N 50°44' E 000°47'9 8.8
2015-Jul-07 00:33N 50°49' E 000°59'1010.0
2015-Jul-06 23:33N 50°56' E 001°11'1211.9
2015-Jul-06 22:33N 51°03' E 001°25'1312.7
2015-Jul-06 21:33N 51°11' E 001°41'1111.1
2015-Jul-06 20:33N 51°20' E 001°51'10 9.8
2015-Jul-06 19:33N 51°29' E 001°59'9 8.9
2015-Jul-06 18:33N 51°35' E 002°08'9 8.6
2015-Jul-06 17:33N 51°42' E 002°18'8 8.1
2015-Jul-06 16:33N 51°48' E 002°27'8 8.2
2015-Jul-06 15:33N 51°53' E 002°36'9 9.3
2015-Jul-06 14:33N 51°60' E 002°47'10 9.8
2015-Jul-06 13:33N 52°03' E 003°02'1010.5
2015-Jul-06 12:33N 52°03' E 003°19'1110.7
2015-Jul-06 11:32N 52°03' E 003°37'10 9.8
2015-Jul-06 10:33N 52°02' E 003°53'8 7.9
2015-Jul-06 09:33N 51°59' E 004°04'2 2.2
2015-Jul-06 08:33N 51°57' E 004°05'0 0.0
2015-Jul-06 07:33N 51°57' E 004°05'0 0.0
2015-Jul-06 06:33N 51°57' E 004°05'0 0.0
2015-Jul-06 05:33N 51°57' E 004°05'0 0.0
2015-Jul-06 04:33N 51°57' E 004°05'0 0.0
2015-Jul-05 12:13N 51°57' E 004°05'0 0.1
2015-Jul-05 11:25N 51°57' E 004°05'0 0.0
2015-Jul-05 10:32N 51°57' E 004°05'0 0.0
2015-Jul-04 17:19N 51°57' E 004°05'0 0.0
2015-Jul-04 16:31N 51°57' E 004°05'0 0.1
2015-Jul-04 15:32N 51°57' E 004°05'  

Dump ship's entire track history